Time;durP1;ratioP1;P1;durP2;ratioP2;P2;SDS_P1;SDS_P2;PMS_P1;PMS_P2;Temp;Humidity;BMP_temperature;BMP_pressure;BME280_temperature;BME280_humidity;BME280_pressure;Samples;Min_cycle;Max_cycle;Signal;HPM_P1;HPM_P2
2022/05/19 00:01:01;;;;;;;5.43;3.85;;;;;;;-148.88;70.83;75159.78;5015528;28;20110;-80
2022/05/19 00:03:27;;;;;;;7.78;4.10;;;;;;;-148.88;70.96;75159.78;5013740;28;20486;-80
2022/05/19 00:05:53;;;;;;;6.28;4.13;;;;;;;-148.88;70.92;75167.91;5015211;28;20026;-79
2022/05/19 00:08:18;;;;;;;6.80;3.90;;;;;;;-148.88;71.24;75165.88;5013886;28;20115;-80
2022/05/19 00:10:43;;;;;;;6.72;3.70;;;;;;;-148.88;71.33;75165.88;5015070;28;20079;-81
2022/05/19 00:13:08;;;;;;;7.30;4.00;;;;;;;-148.88;71.68;75167.91;5015202;28;20494;-81
2022/05/19 00:15:34;;;;;;;8.63;4.35;;;;;;;-148.88;71.82;75163.84;5015220;28;20104;-81
2022/05/19 00:17:59;;;;;;;8.70;4.05;;;;;;;-148.88;71.91;75171.97;5015858;28;20057;-81
2022/05/19 00:23:46;;;;;;;5.82;3.92;;;;;;;-148.88;72.14;75176.03;5025174;28;20041;-81
2022/05/19 00:26:11;;;;;;;6.82;4.10;;;;;;;-148.88;72.56;75184.16;5020651;28;20021;-81
2022/05/19 00:28:37;;;;;;;6.00;3.67;;;;;;;-148.88;72.70;75186.19;5019812;28;20499;-81
2022/05/19 00:31:02;;;;;;;8.02;4.22;;;;;;;-148.88;72.85;75192.28;5018941;28;20029;-82
2022/05/19 00:33:28;;;;;;;7.55;4.35;;;;;;;-148.88;73.09;75194.31;5020349;28;20030;-82
2022/05/19 00:35:53;;;;;;;6.65;4.70;;;;;;;-148.88;73.25;75200.41;5019575;28;20030;-82
2022/05/19 00:38:18;;;;;;;5.03;4.00;;;;;;;-148.88;73.40;75196.34;5019443;28;20045;-81
2022/05/19 00:40:53;;;;;;;6.07;4.20;;;;;;;-148.88;73.49;75208.53;5016492;28;20029;-81
2022/05/19 00:43:30;;;;;;;6.13;4.28;;;;;;;-148.88;73.45;75212.59;5014049;28;20025;-80
2022/05/19 00:46:02;;;;;;;7.35;4.30;;;;;;;-148.88;73.74;75210.56;5012773;28;20482;-81
2022/05/19 00:48:55;;;;;;;9.50;4.70;;;;;;;-148.88;73.77;75220.72;5013443;28;20057;-81
2022/05/19 00:51:35;;;;;;;6.75;4.18;;;;;;;-148.88;73.74;75220.72;5013266;28;20030;-81
2022/05/19 00:54:03;;;;;;;5.78;4.30;;;;;;;-148.88;73.59;75220.72;5019642;28;20080;-81
2022/05/19 00:56:34;;;;;;;5.03;3.97;;;;;;;-148.88;72.97;75216.66;5017691;28;20030;-82
2022/05/19 00:59:10;;;;;;;8.45;4.15;;;;;;;-148.88;72.90;75212.59;5020019;28;20352;-82
2022/05/19 01:01:38;;;;;;;6.28;3.95;;;;;;;-148.88;73.12;75210.56;5020882;28;20052;-81
2022/05/19 01:04:11;;;;;;;6.35;4.25;;;;;;;-148.88;72.79;75214.63;5019095;28;20025;-81
2022/05/19 01:06:37;;;;;;;5.13;4.27;;;;;;;-148.88;73.24;75214.63;5017389;28;20032;-81
2022/05/19 01:09:07;;;;;;;6.45;4.22;;;;;;;-148.88;73.36;75222.75;5018242;28;20261;-80
2022/05/19 01:11:33;;;;;;;6.32;4.60;;;;;;;-148.88;73.76;75222.75;5018846;28;20018;-81
2022/05/19 01:13:59;;;;;;;5.65;4.13;;;;;;;-148.88;73.99;75226.81;5018158;28;20387;-79
2022/05/19 01:16:25;;;;;;;6.78;4.28;;;;;;;-148.88;74.02;75230.88;5018501;28;20041;-80
2022/05/19 01:18:50;;;;;;;6.85;4.53;;;;;;;-148.88;74.17;75230.88;5018077;28;20022;-81
2022/05/19 01:21:19;;;;;;;7.22;4.53;;;;;;;-148.88;74.03;75232.91;5016474;28;20084;-79
2022/05/19 01:24:03;;;;;;;9.05;4.55;;;;;;;-148.88;73.94;75228.84;5057540;23;20042;-83
2022/05/19 01:26:28;;;;;;;6.22;3.92;;;;;;;-148.88;74.29;75228.84;5038279;28;20025;-83
2022/05/19 01:29:00;;;;;;;6.57;4.30;;;;;;;-148.88;74.13;75230.88;5038245;28;20106;-84
2022/05/19 01:31:38;;;;;;;5.50;4.20;;;;;;;-148.88;74.32;75232.91;5019199;28;20501;-83
2022/05/19 01:34:06;;;;;;;6.20;4.50;;;;;;;-148.88;74.50;75232.91;5036814;28;20063;-83
2022/05/19 01:36:31;;;;;;;6.43;4.65;;;;;;;-148.88;74.41;75232.91;5036994;28;20021;-83
2022/05/19 01:39:09;;;;;;;7.25;4.28;;;;;;;-148.88;74.63;75234.94;5019267;28;20027;-83
2022/05/19 01:41:44;;;;;;;8.00;4.68;;;;;;;-148.88;74.72;75245.09;5037771;28;20116;-83
2022/05/19 01:44:41;;;;;;;6.60;4.28;;;;;;;-148.88;74.83;75232.91;5020437;28;20030;-83
2022/05/19 01:47:22;;;;;;;8.25;4.55;;;;;;;-148.88;74.68;75245.09;5020397;28;20078;-83
2022/05/19 01:49:57;;;;;;;7.43;4.75;;;;;;;-148.88;74.77;75245.09;5037458;28;20033;-83
2022/05/19 01:52:34;;;;;;;8.57;4.75;;;;;;;-148.88;74.85;75249.16;5019809;28;20390;-84
2022/05/19 01:55:06;;;;;;;7.18;4.30;;;;;;;-148.88;74.52;75245.09;5019261;28;20044;-83
2022/05/19 01:57:42;;;;;;;7.40;4.93;;;;;;;-148.88;74.54;75241.03;5019477;28;20090;-84
2022/05/19 02:00:10;;;;;;;6.15;4.25;;;;;;;-148.88;74.51;75239.00;5037316;28;20151;-82
2022/05/19 02:02:42;;;;;;;7.22;4.47;;;;;;;-148.88;74.29;75236.97;5019684;28;20036;-83
2022/05/19 02:05:19;;;;;;;5.85;4.57;;;;;;;-148.88;73.96;75234.94;5037307;28;20386;-83
2022/05/19 02:07:49;;;;;;;6.35;3.85;;;;;;;-148.88;74.19;75234.94;5019450;28;20040;-83
2022/05/19 02:10:20;;;;;;;4.68;4.15;;;;;;;-148.88;73.98;75241.03;5037187;28;20509;-83
2022/05/19 02:12:48;;;;;;;7.47;4.88;;;;;;;-148.88;73.76;75226.81;5018042;28;20029;-82
2022/05/19 02:15:16;;;;;;;5.93;4.45;;;;;;;-148.88;73.41;75224.78;5037003;28;20478;-82
2022/05/19 02:17:45;;;;;;;5.85;4.38;;;;;;;-148.88;73.19;75224.78;5036717;28;20021;-83
2022/05/19 02:20:13;;;;;;;5.25;4.35;;;;;;;-148.88;73.23;75228.84;5037826;28;20025;-85
2022/05/19 02:22:42;;;;;;;7.30;4.78;;;;;;;-148.88;72.89;75228.84;5022951;28;20029;-84
2022/05/19 02:25:37;;;;;;;6.22;4.65;;;;;;;-148.88;72.59;75224.78;5024596;28;20060;-84
2022/05/19 02:28:08;;;;;;;7.10;4.43;;;;;;;-148.88;72.46;75224.78;5018942;28;20060;-84
2022/05/19 02:30:39;;;;;;;6.95;4.78;;;;;;;-148.88;72.01;75216.66;5023314;28;20029;-84
2022/05/19 02:33:05;;;;;;;6.63;4.50;;;;;;;-148.88;71.92;75212.59;5022887;28;20160;-84
2022/05/19 02:35:30;;;;;;;7.88;4.25;;;;;;;-148.88;72.15;75216.66;5040594;28;20100;-84
2022/05/19 02:37:58;;;;;;;6.72;4.88;;;;;;;-148.88;72.55;75214.63;5022038;28;20573;-84
2022/05/19 02:40:27;;;;;;;6.53;4.55;;;;;;;-148.88;72.82;75228.84;5020201;28;20052;-84
2022/05/19 02:42:52;;;;;;;6.82;4.38;;;;;;;-148.88;73.19;75232.91;5020819;28;20112;-83
2022/05/19 02:45:20;;;;;;;7.78;4.80;;;;;;;-148.88;73.23;75232.91;5038403;28;20049;-83
2022/05/19 02:47:46;;;;;;;7.30;4.65;;;;;;;-148.88;73.60;75232.91;5021584;28;20017;-82
2022/05/19 02:50:14;;;;;;;7.13;4.20;;;;;;;-148.88;73.66;75232.91;5018625;28;20028;-86
2022/05/19 02:52:39;;;;;;;8.18;4.90;;;;;;;-148.88;73.82;75247.13;5021230;28;20021;-83
2022/05/19 02:55:05;;;;;;;7.72;4.60;;;;;;;-148.88;73.92;75249.16;5039846;28;20047;-83
2022/05/19 02:57:31;;;;;;;6.22;4.72;;;;;;;-148.88;74.09;75253.22;5022144;28;20032;-84
2022/05/19 02:59:57;;;;;;;7.25;4.78;;;;;;;-148.88;74.23;75257.28;5038530;28;20482;-85
2022/05/19 03:02:22;;;;;;;10.07;4.93;;;;;;;-148.88;74.56;75261.34;5020995;28;20032;-84
2022/05/19 03:04:51;;;;;;;6.20;4.50;;;;;;;-148.88;74.51;75271.50;5021102;28;20021;-85
2022/05/19 03:07:17;;;;;;;6.85;4.70;;;;;;;-148.88;74.24;75269.47;5037928;28;20029;-84
2022/05/19 03:09:45;;;;;;;9.13;5.20;;;;;;;-148.88;74.33;75275.56;5020991;28;20025;-83
2022/05/19 03:12:16;;;;;;;7.30;4.78;;;;;;;-148.88;74.26;75273.53;5021113;28;20125;-82
2022/05/19 03:18:21;;;;;;;10.38;5.70;;;;;;;-148.88;74.26;75273.53;4996378;28;20036;-84
2022/05/19 03:20:55;;;;;;;7.63;5.13;;;;;;;-148.88;74.31;75273.53;5016101;28;20041;-84
2022/05/19 03:23:20;;;;;;;7.85;5.03;;;;;;;-148.88;74.13;75271.50;5019148;28;20423;-85
2022/05/19 03:25:45;;;;;;;7.88;5.72;;;;;;;-148.88;73.79;75269.47;5018599;28;20029;-83
2022/05/19 03:28:14;;;;;;;6.75;5.10;;;;;;;-148.88;73.46;75263.38;5035464;28;20033;-85
2022/05/19 03:30:45;;;;;;;6.85;4.70;;;;;;;-148.88;73.58;75261.34;5036806;28;20394;-86
2022/05/19 03:33:11;;;;;;;9.07;4.65;;;;;;;-148.88;73.35;75263.38;5036247;28;20028;-86
2022/05/19 03:38:59;;;;;;;10.77;4.90;;;;;;;-148.88;73.02;75259.31;5037133;28;20041;-84
2022/05/19 03:41:30;;;;;;;12.25;5.35;;;;;;;-148.88;72.85;75251.19;5019952;28;20414;-85
2022/05/19 03:43:55;;;;;;;9.40;4.78;;;;;;;-148.88;73.27;75257.28;5019370;28;20398;-83
2022/05/19 03:46:21;;;;;;;8.63;5.20;;;;;;;-148.88;73.54;75259.31;5039325;28;20029;-84
2022/05/19 03:48:47;;;;;;;8.25;5.18;;;;;;;-148.88;73.71;75263.38;5037436;28;20112;-84
2022/05/19 03:51:49;;;;;;;8.57;4.82;;;;;;;-148.88;74.28;75269.47;5036677;28;20029;-84
2022/05/19 03:54:15;;;;;;;7.20;4.68;;;;;;;-148.88;74.21;75275.56;5018532;28;20120;-83
2022/05/19 03:56:40;;;;;;;8.13;5.15;;;;;;;-148.88;74.00;75281.66;5018509;28;20060;-84
2022/05/19 03:59:06;;;;;;;8.70;4.70;;;;;;;-148.88;74.21;75279.59;5018398;28;20088;-83
2022/05/19 04:01:35;;;;;;;8.57;5.00;;;;;;;-148.88;74.15;75285.69;5018103;28;20032;-82
2022/05/19 04:04:03;;;;;;;8.15;4.60;;;;;;;-148.88;74.17;75275.56;5017923;28;20021;-85
2022/05/19 04:06:29;;;;;;;7.03;4.93;;;;;;;-148.88;74.80;75281.66;5016948;28;20121;-83
2022/05/19 04:08:54;;;;;;;7.47;5.18;;;;;;;-148.88;74.79;75285.69;5034405;28;20044;-83
2022/05/19 04:11:19;;;;;;;6.55;5.13;;;;;;;-148.88;74.98;75291.78;5035487;28;20430;-83
2022/05/19 04:13:44;;;;;;;5.75;4.68;;;;;;;-148.88;74.90;75297.88;5034704;28;20036;-83
2022/05/19 04:16:10;;;;;;;7.30;5.20;;;;;;;-148.88;75.03;75299.91;5018198;28;20029;-83
2022/05/19 04:18:36;;;;;;;7.85;4.88;;;;;;;-148.88;75.25;75301.94;5034941;28;20030;-83
2022/05/19 04:21:01;;;;;;;7.03;5.07;;;;;;;-148.88;75.54;75306.00;5035389;28;20104;-83
2022/05/19 04:23:27;;;;;;;8.38;5.05;;;;;;;-148.88;75.63;75308.03;5017489;28;20029;-84
2022/05/19 04:25:52;;;;;;;6.13;5.00;;;;;;;-148.88;75.75;75310.06;5034900;28;20459;-82
2022/05/19 04:29:10;;;;;;;7.95;5.30;;;;;;;-148.88;76.17;75310.06;5034354;28;20026;-83
2022/05/19 04:31:35;;;;;;;7.47;4.80;;;;;;;-148.88;76.71;75306.00;5034961;28;20060;-85
2022/05/19 04:34:01;;;;;;;8.82;5.00;;;;;;;-148.88;77.36;75306.00;5017366;28;20056;-85
2022/05/19 04:36:26;;;;;;;8.68;4.85;;;;;;;-148.88;77.66;75318.19;5021940;28;20470;-84
2022/05/19 04:38:52;;;;;;;7.45;5.10;;;;;;;-148.88;77.56;75312.09;5040837;28;20030;-83
2022/05/19 04:41:17;;;;;;;8.10;5.13;;;;;;;-148.88;77.42;75314.13;5024872;28;20478;-85
2022/05/19 04:43:51;;;;;;;7.45;4.70;;;;;;;-148.88;77.80;75310.06;5025988;28;20539;-86
2022/05/19 04:46:16;;;;;;;8.63;5.35;;;;;;;-148.88;78.30;75310.06;5023215;28;20032;-86
2022/05/19 04:48:42;;;;;;;8.90;5.13;;;;;;;-148.88;78.75;75310.06;5023484;28;20025;-85
2022/05/19 04:51:16;;;;;;;7.45;5.15;;;;;;;-148.88;78.80;75314.13;5024996;28;20360;-84
2022/05/19 04:53:45;;;;;;;6.38;5.18;;;;;;;-148.88;79.16;75310.06;5025479;28;20091;-85
2022/05/19 04:56:11;;;;;;;7.15;4.70;;;;;;;-148.88;79.13;75310.06;5024392;28;20486;-85
2022/05/19 04:58:51;;;;;;;9.25;4.75;;;;;;;-148.88;78.97;75312.09;5023841;28;20045;-86
2022/05/19 05:01:20;;;;;;;7.28;4.93;;;;;;;-148.88;79.09;75306.00;5023953;28;20028;-85
2022/05/19 05:03:46;;;;;;;5.88;4.88;;;;;;;-148.88;78.82;75308.03;5023332;28;20499;-84
2022/05/19 05:06:11;;;;;;;7.43;5.15;;;;;;;-148.88;78.82;75303.97;5043525;28;20100;-84
2022/05/19 05:08:36;;;;;;;6.82;5.20;;;;;;;-148.88;78.99;75301.94;5025469;28;20108;-84
2022/05/19 05:11:02;;;;;;;8.90;5.13;;;;;;;-148.88;78.99;75299.91;5024955;28;20111;-86
2022/05/19 05:13:28;;;;;;;7.75;5.05;;;;;;;-148.88;79.17;75299.91;5041718;28;20103;-84
2022/05/19 05:15:53;;;;;;;8.82;5.25;;;;;;;-148.88;79.08;75293.81;5040356;28;20017;-86
2022/05/19 05:18:39;;;;;;;6.35;5.07;;;;;;;-148.88;79.19;75295.84;5022536;28;20032;-88
2022/05/19 05:21:34;;;;;;;7.82;5.00;;;;;;;-148.88;78.81;75289.75;5022938;28;20022;-88
2022/05/19 05:27:05;;;;;;;10.02;5.07;;;;;;;-148.88;78.70;75283.66;5040426;28;20041;-88
2022/05/19 05:29:31;;;;;;;8.95;5.40;;;;;;;-148.88;79.13;75281.66;5023192;28;20490;-89
2022/05/19 05:31:56;;;;;;;6.10;4.97;;;;;;;-148.88;79.44;75279.59;5021909;28;20087;-87
2022/05/19 05:34:21;;;;;;;6.65;5.32;;;;;;;-148.88;78.98;75267.44;5022066;28;20429;-88
2022/05/19 05:40:06;;;;;;;6.10;5.05;;;;;;;-148.88;78.88;75253.22;5016901;28;20036;-87
2022/05/19 05:42:32;;;;;;;8.77;5.40;;;;;;;-148.88;77.66;75249.16;5029618;22;20507;-77
2022/05/19 05:44:57;;;;;;;10.15;4.97;;;;;;;-148.88;78.03;75234.94;5039224;28;20017;-76
2022/05/19 05:47:23;;;;;;;7.63;5.20;;;;;;;-148.88;77.55;75224.78;5037330;28;20371;-77
2022/05/19 05:49:48;;;;;;;7.97;5.53;;;;;;;-148.88;77.83;75214.63;5018210;28;20053;-77
2022/05/19 05:52:13;;;;;;;6.43;5.15;;;;;;;-148.88;77.93;75206.50;5036201;28;20041;-77
2022/05/19 05:54:39;;;;;;;8.80;4.90;;;;;;;-148.88;78.03;75196.34;5036000;28;20029;-76
2022/05/19 05:57:04;;;;;;;7.82;5.20;;;;;;;-148.88;77.37;75190.25;5036314;28;20071;-76
2022/05/19 05:59:30;;;;;;;8.55;4.90;;;;;;;-148.88;77.23;75178.06;5018125;28;20053;-76
2022/05/19 06:01:55;;;;;;;8.57;5.13;;;;;;;-148.88;77.73;75159.78;5018197;28;20048;-76
2022/05/19 06:04:20;;;;;;;7.93;5.10;;;;;;;-148.88;78.11;75155.72;5035990;28;20029;-76
2022/05/19 06:06:46;;;;;;;8.85;4.68;;;;;;;-148.88;78.52;75141.50;5035904;28;20079;-76
2022/05/19 06:09:15;;;;;;;7.43;5.10;;;;;;;-148.88;77.92;75123.22;5018555;28;20021;-77
2022/05/19 06:11:42;;;;;;;10.80;5.05;;;;;;;-148.88;76.01;75131.34;5035956;28;20072;-77
2022/05/19 06:14:08;;;;;;;10.13;4.60;;;;;;;-148.88;76.89;75117.13;5035817;28;20375;-77
2022/05/19 06:16:33;;;;;;;8.43;5.20;;;;;;;-148.88;75.49;75102.91;5035468;28;20041;-77
2022/05/19 06:18:59;;;;;;;5.82;4.38;;;;;;;-148.88;75.92;75090.72;5035695;28;20418;-77
2022/05/19 06:21:25;;;;;;;7.72;4.80;;;;;;;-148.88;76.27;75076.53;5017549;28;20017;-77
2022/05/19 06:23:50;;;;;;;5.90;4.22;;;;;;;-148.88;74.33;75058.25;5017475;28;20124;-77
2022/05/19 06:26:16;;;;;;;5.90;4.32;;;;;;;-148.88;73.39;75048.09;5017491;28;20435;-76
2022/05/19 06:28:41;;;;;;;6.57;4.90;;;;;;;-148.88;74.64;75037.94;5035546;28;20546;-77
2022/05/19 06:31:06;;;;;;;8.13;4.60;;;;;;;-148.88;73.87;75025.75;5035293;28;20390;-77
2022/05/19 06:33:35;;;;;;;7.45;4.32;;;;;;;-148.88;74.16;75021.69;5017438;28;20022;-77
2022/05/19 06:36:01;;;;;;;7.97;4.15;;;;;;;-148.88;71.48;75013.56;5035216;28;20032;-77
2022/05/19 06:38:26;;;;;;;6.03;4.10;;;;;;;-148.88;71.83;75009.50;5035102;28;20383;-76
2022/05/19 06:40:51;;;;;;;6.50;4.15;;;;;;;-148.88;71.93;75001.38;5035298;28;20120;-77
2022/05/19 06:43:19;;;;;;;4.72;3.50;;;;;;;-148.88;70.92;75003.41;5035048;28;20506;-77
2022/05/19 06:45:44;;;;;;;6.47;3.58;;;;;;;-148.88;70.30;74997.31;5017642;28;20040;-76
2022/05/19 06:48:11;;;;;;;5.28;3.50;;;;;;;-148.88;69.20;74989.19;5035376;28;20025;-77
2022/05/19 06:50:36;;;;;;;6.55;3.40;;;;;;;-148.88;68.93;74972.94;5017322;28;20114;-77
2022/05/19 06:53:03;;;;;;;5.47;3.40;;;;;;;-148.88;68.21;74972.94;5035225;28;20096;-77
2022/05/19 06:58:50;;;;;;;4.32;3.35;;;;;;;-148.88;67.47;74948.56;5034817;28;20032;-77
2022/05/19 07:01:15;;;;;;;5.68;3.42;;;;;;;-148.88;67.11;74940.47;5034720;28;20398;-77
2022/05/19 07:03:40;;;;;;;6.45;3.47;;;;;;;-148.88;65.99;74932.34;5034505;28;20025;-77
2022/05/19 07:06:06;;;;;;;6.53;3.22;;;;;;;-148.88;65.03;74924.22;5034710;28;20051;-76
2022/05/19 07:08:34;;;;;;;5.82;3.38;;;;;;;-148.88;64.92;74918.13;5016779;28;20391;-77
2022/05/19 07:11:00;;;;;;;4.82;3.10;;;;;;;-148.88;63.94;74910.00;5034846;28;20029;-77
2022/05/19 07:13:25;;;;;;;6.07;3.28;;;;;;;-148.88;63.31;74895.78;5034560;28;20036;-77
2022/05/19 07:16:32;;;;;;;5.00;3.20;;;;;;;-148.88;63.09;74891.72;5016650;28;20021;-77
2022/05/19 07:21:51;;;;;;;8.13;3.13;;;;;;;-148.88;63.37;74867.34;5034440;28;20029;-77
2022/05/19 07:24:19;;;;;;;3.65;3.13;;;;;;;-148.88;65.88;74857.19;5038483;23;20072;-83
2022/05/19 07:26:52;;;;;;;8.32;3.20;;;;;;;-148.88;63.55;74838.91;5033844;28;20021;-83
2022/05/19 07:29:18;;;;;;;;;;;;;;;-148.88;62.10;74822.66;5034184;28;20475;-83
2022/05/19 07:35:07;;;;;;;4.65;3.00;;;;;;;-148.88;61.87;74796.28;5033804;28;20045;-83
2022/05/19 07:40:54;;;;;;;4.45;2.97;;;;;;;-148.88;61.39;74747.53;5033824;28;20124;-80
2022/05/19 07:43:53;;;;;;;4.35;2.90;;;;;;;-148.88;58.29;74735.34;5033457;28;20475;-83
2022/05/19 07:46:11;;;;;;;3.97;3.03;;;;;;;-148.88;57.43;74715.03;5030199;28;20040;-83
2022/05/19 07:48:38;;;;;;;4.93;2.60;;;;;;;-148.88;56.23;74688.66;5015635;28;20061;-83
2022/05/19 07:51:04;;;;;;;5.18;2.42;;;;;;;-148.88;54.50;74688.66;5033348;28;20045;-83
2022/05/19 07:53:29;;;;;;;6.45;2.50;;;;;;;-148.88;51.96;74658.19;5033320;28;20406;-84
2022/05/19 07:55:55;;;;;;;4.57;2.30;;;;;;;-148.88;49.06;74648.03;5015346;28;20025;-83
2022/05/19 07:58:21;;;;;;;3.75;2.80;;;;;;;-148.88;52.24;74629.75;5033281;28;20040;-84
2022/05/19 08:00:46;;;;;;;6.68;2.67;;;;;;;-148.88;50.75;74615.53;5033275;28;20079;-84
2022/05/19 08:03:13;;;;;;;3.65;2.35;;;;;;;-148.88;49.46;74623.66;5033308;28;20036;-84
2022/05/19 08:05:38;;;;;;;5.30;2.28;;;;;;;-148.88;49.95;74631.78;5033146;28;20083;-83
2022/05/19 08:08:03;;;;;;;5.28;2.38;;;;;;;-148.88;49.49;74635.84;5033237;28;20425;-83
2022/05/19 08:10:29;;;;;;;4.43;2.40;;;;;;;-148.88;48.71;74623.66;5033148;28;20029;-84
2022/05/19 08:15:43;;;;;;;6.15;2.42;;;;;;;-148.88;48.32;74603.34;5032977;28;20501;-84
2022/05/19 08:18:11;;;;;;;4.88;2.30;;;;;;;-148.88;47.03;74601.31;5015428;28;20471;-85
2022/05/19 08:20:43;;;;;;;5.38;2.10;;;;;;;-148.88;46.39;74595.25;5033094;28;20033;-85
2022/05/19 08:23:13;;;;;;;4.18;2.30;;;;;;;-148.88;46.69;74587.13;5032625;28;20025;-83
2022/05/19 08:25:39;;;;;;;4.22;2.30;;;;;;;-148.88;45.79;74583.06;5032808;28;20471;-85
2022/05/19 08:28:05;;;;;;;3.90;2.30;;;;;;;-148.88;45.87;74574.94;5032543;28;20017;-85
2022/05/19 08:30:30;;;;;;;3.40;2.20;;;;;;;-148.88;48.08;74564.78;5014766;28;20117;-85
2022/05/19 08:32:56;;;;;;;4.45;2.25;;;;;;;-148.88;48.00;74546.50;5032706;28;20378;-83
2022/05/19 08:35:21;;;;;;;4.93;2.20;;;;;;;-148.88;47.63;74542.44;5032974;28;20163;-85
2022/05/19 08:37:48;;;;;;;5.70;2.35;;;;;;;-148.88;47.53;74538.38;5032511;28;20033;-84
2022/05/19 08:40:13;;;;;;;3.72;2.03;;;;;;;-148.88;48.97;74526.19;5033165;28;20463;-84
2022/05/19 08:42:45;;;;;;;3.55;2.25;;;;;;;-148.88;50.31;74528.22;5033147;28;20044;-85
2022/05/19 08:45:25;;;;;;;4.35;2.20;;;;;;;-148.88;47.04;74538.38;5033018;28;20029;-84
2022/05/19 08:48:01;;;;;;;4.47;2.38;;;;;;;-148.88;47.95;74534.31;5033288;28;20038;-83
2022/05/19 08:50:33;;;;;;;4.88;2.25;;;;;;;-148.88;48.09;74530.25;5033297;28;20371;-84
2022/05/19 08:52:59;;;;;;;4.32;2.30;;;;;;;-148.88;47.52;74540.41;5033100;28;20026;-84
2022/05/19 08:55:24;;;;;;;4.88;2.47;;;;;;;-148.88;45.26;74546.50;5033246;28;20029;-85
2022/05/19 08:58:08;;;;;;;6.68;2.50;;;;;;;-148.88;45.15;74542.44;5033467;28;20021;-85
2022/05/19 09:00:49;;;;;;;7.07;2.60;;;;;;;-148.88;49.44;74530.25;5032997;28;20025;-84
2022/05/19 09:03:23;;;;;;;5.18;2.40;;;;;;;-148.88;47.24;74528.22;5033184;28;20379;-84
2022/05/19 09:06:05;;;;;;;4.93;2.45;;;;;;;-148.88;47.81;74524.16;5033052;28;20022;-85
2022/05/19 09:08:55;;;;;;;3.95;2.45;;;;;;;-148.88;47.54;74516.03;5033252;28;20039;-85
2022/05/19 09:11:24;;;;;;;5.03;2.40;;;;;;;-148.88;45.30;74493.72;5033194;28;20112;-85
2022/05/19 09:14:00;;;;;;;4.05;2.72;;;;;;;-148.88;46.66;74495.75;5032789;28;20164;-85
2022/05/19 09:16:30;;;;;;;5.13;2.60;;;;;;;-148.88;49.85;74473.41;5033144;28;20017;-85
2022/05/19 09:19:07;;;;;;;4.22;2.35;;;;;;;-148.88;48.35;74473.41;5033108;28;20030;-85
2022/05/19 09:21:35;;;;;;;3.92;2.67;;;;;;;-148.88;46.69;74481.53;5033120;28;20116;-86
2022/05/19 09:24:00;;;;;;;6.07;2.45;;;;;;;-148.88;48.75;74469.34;5036713;28;20441;-86
2022/05/19 09:26:40;;;;;;;3.58;2.53;;;;;;;-148.88;50.74;74465.28;5037162;28;20549;-86
2022/05/19 09:29:09;;;;;;;3.92;2.47;;;;;;;-148.88;49.63;74455.13;5039421;28;20136;-84
2022/05/19 09:32:02;;;;;;;3.90;2.50;;;;;;;-148.88;50.03;74438.88;5036825;28;20028;-84
2022/05/19 09:34:29;;;;;;;4.82;2.47;;;;;;;-148.88;46.01;74408.44;4981382;28;20035;-85
2022/05/19 09:37:05;;;;;;;5.65;2.60;;;;;;;-148.88;46.77;74380.00;5037641;28;20027;-84
2022/05/19 09:39:34;;;;;;;4.03;2.90;;;;;;;-148.88;45.27;74347.50;5036640;28;20068;-85
2022/05/19 09:42:12;;;;;;;6.80;2.40;;;;;;;-148.88;43.05;74327.19;5018375;28;20589;-85
2022/05/19 09:44:48;;;;;;;5.82;2.47;;;;;;;-148.88;45.95;74288.63;5036424;28;20056;-85
2022/05/19 09:47:31;;;;;;;4.75;2.65;;;;;;;-148.88;47.89;74250.03;5036544;28;20021;-84
2022/05/19 09:50:19;;;;;;;5.97;2.40;;;;;;;-148.88;43.95;74193.19;5018444;28;20032;-84
2022/05/19 09:52:45;;;;;;;4.40;2.70;;;;;;;-148.88;43.26;74174.91;5036392;28;20085;-84
2022/05/19 09:55:14;;;;;;;5.55;2.50;;;;;;;-148.88;40.90;74144.47;5036020;28;20025;-85
2022/05/19 09:57:52;;;;;;;5.40;2.60;;;;;;;-148.88;40.94;74132.28;5036137;28;20517;-83
2022/05/19 10:00:25;;;;;;;5.10;2.45;;;;;;;-148.88;42.52;74097.78;5036191;28;20036;-85
2022/05/19 10:02:55;;;;;;;3.53;2.22;;;;;;;-148.88;40.02;74079.50;5035729;28;20021;-85
2022/05/19 10:05:59;;;;;;;7.72;2.53;;;;;;;-148.88;39.77;74093.72;5036166;28;20061;-86
2022/05/19 10:08:42;;;;;;;4.97;2.63;;;;;;;-148.88;39.49;74120.09;4955754;29;20035;-85
2022/05/19 10:11:13;;;;;;;4.20;2.45;;;;;;;-148.88;42.47;74079.50;5028745;28;20034;-85
2022/05/19 10:13:43;;;;;;;3.63;2.30;;;;;;;-148.88;40.85;74087.63;5035586;28;20552;-86
2022/05/19 10:16:50;;;;;;;6.75;2.92;;;;;;;-148.88;41.54;74071.38;5035931;28;20021;-85
2022/05/19 10:19:30;;;;;;;7.40;3.15;;;;;;;-148.88;41.56;74051.06;5035899;28;20026;-85
2022/05/19 10:22:23;;;;;;;9.75;3.17;;;;;;;-148.88;38.81;74014.53;5035590;28;20052;-85
2022/05/19 10:25:10;;;;;;;4.65;2.45;;;;;;;-148.88;39.76;74004.38;5035429;28;20038;-84
2022/05/19 10:33:15;;;;;;;4.40;2.55;;;;;;;-148.88;40.02;74055.13;5034779;28;20063;-85
2022/05/19 10:35:58;;;;;;;4.10;2.33;;;;;;;-148.88;38.86;74018.59;5035421;28;20025;-85
2022/05/19 10:38:37;;;;;;;5.40;2.75;;;;;;;-148.88;40.32;74042.94;5035685;28;20026;-84
2022/05/19 10:41:13;;;;;;;7.07;2.45;;;;;;;-148.88;39.31;74073.41;5035732;28;20033;-85
2022/05/19 10:44:08;;;;;;;4.78;2.40;;;;;;;-148.88;39.87;74071.38;5035407;28;20029;-86
2022/05/19 10:46:45;;;;;;;7.22;3.00;;;;;;;-148.88;38.97;74047.00;5013113;28;20033;-85
2022/05/19 10:49:52;;;;;;;4.18;2.45;;;;;;;-148.88;38.79;74024.69;5035270;28;20029;-85
2022/05/19 10:52:37;;;;;;;4.18;2.50;;;;;;;-148.88;39.43;73998.28;5034876;28;20017;-84
2022/05/19 10:55:13;;;;;;;4.35;2.63;;;;;;;-148.88;39.69;73949.56;5034925;28;20025;-85
2022/05/19 10:57:51;;;;;;;6.07;2.47;;;;;;;-148.88;39.81;73921.13;5035046;28;20074;-84
2022/05/19 11:00:43;;;;;;;5.93;2.42;;;;;;;-148.88;37.62;73904.88;5034965;28;20025;-85
2022/05/19 11:03:19;;;;;;;3.83;2.30;;;;;;;-148.88;39.41;73888.66;5024211;28;20048;-85
2022/05/19 11:05:48;;;;;;;4.78;2.60;;;;;;;-148.88;38.61;73884.59;5034805;28;20021;-85
2022/05/19 11:08:43;;;;;;;4.47;2.30;;;;;;;-148.88;39.38;73888.66;5034587;28;20025;-85
2022/05/19 11:11:08;;;;;;;3.58;2.50;;;;;;;-148.88;40.67;73831.81;4997306;28;20045;-85
2022/05/19 11:14:04;;;;;;;3.63;2.63;;;;;;;-148.88;39.35;73880.53;5034460;28;20024;-86
2022/05/19 11:16:56;;;;;;;5.53;2.55;;;;;;;-148.88;37.49;73872.41;5034619;28;20033;-86
2022/05/19 11:19:32;;;;;;;5.05;2.55;;;;;;;-148.88;38.25;73852.09;5035571;28;20028;-85
2022/05/19 11:22:06;;;;;;;3.95;2.47;;;;;;;-148.88;37.50;73831.81;5034475;28;20017;-84
2022/05/19 11:27:40;;;;;;;4.22;2.42;;;;;;;-148.88;37.89;73760.75;5034203;28;20091;-84
2022/05/19 11:30:14;;;;;;;3.95;2.30;;;;;;;-148.88;36.98;73762.78;5034442;28;20497;-85
2022/05/19 11:32:42;;;;;;;4.72;2.53;;;;;;;-148.88;37.11;73742.47;5034511;28;20025;-85
2022/05/19 11:35:15;;;;;;;4.38;2.00;;;;;;;-148.88;34.99;73738.41;5034071;28;20029;-85
2022/05/19 11:37:43;;;;;;;;;;;;;;;-148.88;35.92;73734.34;5034395;28;20121;-85
2022/05/19 11:40:31;;;;;;;4.20;2.25;;;;;;;-148.88;36.32;73730.28;5033993;28;20374;-85
2022/05/19 11:43:06;;;;;;;3.97;2.08;;;;;;;-148.88;36.56;73710.00;5034048;28;20045;-84
2022/05/19 11:45:45;;;;;;;3.28;2.30;;;;;;;-148.88;35.94;73710.00;5033864;28;20017;-85
2022/05/19 11:57:19;;;;;;;6.53;2.33;;;;;;;-148.88;34.19;73647.06;5034189;28;20036;-84
2022/05/19 11:59:47;;;;;;;4.82;2.30;;;;;;;-148.88;36.55;73645.03;5034327;28;20026;-83
2022/05/19 12:02:17;;;;;;;4.57;2.47;;;;;;;-148.88;35.33;73624.72;5033924;28;20486;-82
2022/05/19 12:04:44;;;;;;;3.47;2.03;;;;;;;-148.88;36.21;73608.47;5034001;28;20029;-84
2022/05/19 12:07:09;;;;;;;5.57;2.33;;;;;;;-148.88;35.53;73616.59;5033488;28;20036;-83
2022/05/19 12:09:44;;;;;;;4.23;2.10;;;;;;;-148.88;36.02;73588.19;5016089;28;20033;-83
2022/05/19 12:12:18;;;;;;;4.38;2.30;;;;;;;-148.88;35.58;73606.44;5033957;28;20336;-84
2022/05/19 12:14:48;;;;;;;4.22;2.47;;;;;;;-148.88;34.72;73586.16;5016062;28;20025;-84
2022/05/19 12:17:29;;;;;;;5.00;2.35;;;;;;;-148.88;34.86;73567.88;5015975;28;20017;-82
2022/05/19 12:19:57;;;;;;;8.05;2.42;;;;;;;-148.88;34.01;73576.00;5015671;28;20029;-84
2022/05/19 12:22:40;;;;;;;4.90;2.38;;;;;;;-148.88;34.64;73588.19;5033589;28;20025;-84
2022/05/19 12:25:23;;;;;;;3.30;1.90;;;;;;;-148.88;34.17;73571.94;5033228;28;20543;-83